Terminal Aerodrome Forecast
Issued by NWS

Home | Current Version | Previous Version | Text Only | Print | Product List | Glossary On
Versions: 1 2 3 4 5 6 7 8 9 10 11 12 13 14 15 16 17 18 19 20 21 22 23 24
000
FTUS46 KPDT 092115 AAB
TAFALW
TAF AMD
KALW 092115Z 0921/1018 VRB06KT P6SM OVC011
      TEMPO 0921/1001 1SM -SN BR OVC001
     FM100100 22007KT 3SM -SN BR SCT012 OVC025
      TEMPO 1006/1010 1SM -SN OVC008=

USA.gov is the U.S. government's official web portal to all federal, state and local government web resources and services.